Bei Facebook empfehlenBei Twitter postenGoogle plusPinterest

Das Wetter im Erzgebirge am 22.02.2016

Wetter und Klima am 22.02.2016 Holzhau im Erzgebirge (630m ü.NN)
Letzte gemessene Temperatur und Uhrzeit der Messung23:45:00 Uhr1.10 °C
Temperatur (Maximum / Höchstwert) und Uhrzeit der Messung12:15:00 Uhr8.40 °C
Temperatur (Minimum / Tiefstwert) und Uhrzeit der Messung23:45:001.10 °C
Errechneter Absolutwert der Temperaturschwankungen zwischen Tmin und Tmax des Tages7.30 K
Errechnete Tagesmitteltemperatur6.94896 °C
Gesamt - Niederschlag des Tages (in flüssiger Form)1.04 Liter / m²
Luftdruck (Maximum / Höchstwert) und Zeitpunkt der Messung00:00:00 Uhr1003.60 hPa
Luftdruck (Minimum / Tiefstwert) und Zeitpunkt der Messung20:30:00 Uhr1001.50 hPa
Errechneter Absolutwert der Luftdruckschwankungen des Tages2.10 hPa
Höchste gemessene Windgeschwindigkeit und Uhrzeit der Messung04:00:00 Uhr32.40 km/h
Errechnete Windhäufigkeit in Relation zu den Messwerten des Tages63.54167 %
Niedrigste Windkühle (Windchill) und Zeitpunkt der Messung23:45:00 Uhr1.10 °C
Taupunkt (Maximum / Höchstwert) und Uhrzeit der Messung00:15:00 Uhr6.90 °C
Taupunkt (Minimum / Tiefstwert) und Uhrzeit der Messung23:45:00-0.40 °C
Anzahl der automatisch eingelesenen Messwerte 96

Detaillierte Wetter- und Klima- Messwerte für den 22.02.2016 in Holzhau im Erzgebirge (630m ü.NN)
ZeitTemperaturLuftdruckRel. LuftfeuchteWindWindrichtungWindchillTaupunktNiederschlag l/m²
23:45:001.10 °C1003.00 hPa90.00 %-0.40 °C1.04
23:30:001.30 °C1002.70 hPa90.00 %-0.20 °C1.04
23:15:001.40 °C1002.60 hPa90.00 %-0.10 °C1.04
23:00:001.60 °C1002.50 hPa90.00 %0.10 °C1.04
22:45:001.90 °C1002.50 hPa89.00 %0.30 °C1.04
22:30:002.20 °C1002.60 hPa89.00 %0.60 °C0.52
22:15:002.70 °C1002.60 hPa88.00 %0.90 °C0.52
22:00:003.80 °C1002.50 hPa88.00 %3.24 km/hNNW3.80 °C2.00 °C0.52
21:45:004.60 °C1002.20 hPa88.00 %2.80 °C 
21:30:005.50 °C1002.00 hPa87.00 %3.50 °C 
21:15:006.40 °C1001.80 hPa86.00 %4.20 °C 
21:00:007.10 °C1001.70 hPa85.00 %4.32 km/hW7.10 °C4.80 °C 
20:45:007.10 °C1001.70 hPa85.00 %4.68 km/hWNW7.10 °C4.80 °C 
20:30:007.10 °C1001.50 hPa85.00 %4.80 °C 
20:15:007.10 °C1001.60 hPa85.00 %2.16 km/hW7.10 °C4.80 °C 
20:00:007.10 °C1001.70 hPa85.00 %4.80 °C 
19:45:007.10 °C1001.80 hPa85.00 %4.80 °C 
19:30:007.10 °C1002.00 hPa86.00 %7.92 km/hSSW5.60 °C4.90 °C 
19:15:007.10 °C1002.00 hPa86.00 %6.12 km/hSW6.10 °C4.90 °C 
19:00:007.10 °C1002.00 hPa86.00 %4.90 °C 
18:45:007.10 °C1002.10 hPa86.00 %8.28 km/hW5.50 °C4.90 °C 
18:30:007.10 °C1001.90 hPa87.00 %5.10 °C 
18:15:007.00 °C1001.70 hPa87.00 %5.00 °C 
18:00:007.00 °C1001.80 hPa88.00 %5.20 °C 
17:45:007.00 °C1001.80 hPa88.00 %5.04 km/hWNW6.30 °C5.20 °C 
17:30:007.00 °C1001.90 hPa88.00 %12.60 km/hSW4.60 °C5.20 °C 
17:15:007.00 °C1001.90 hPa88.00 %7.20 km/hWNW5.70 °C5.20 °C 
17:00:007.10 °C1001.80 hPa87.00 %9.00 km/hNW5.40 °C5.10 °C 
16:45:007.10 °C1001.80 hPa86.00 %3.60 km/hWSW7.10 °C4.90 °C 
16:30:007.10 °C1001.80 hPa86.00 %6.48 km/hWSW6.00 °C4.90 °C 
16:15:007.20 °C1001.90 hPa85.00 %4.90 °C 
16:00:007.40 °C1002.00 hPa84.00 %2.88 km/hW7.40 °C4.90 °C 
15:45:007.60 °C1002.00 hPa83.00 %9.00 km/hSSO6.00 °C4.90 °C 
15:30:007.70 °C1001.90 hPa83.00 %8.28 km/hNNW6.20 °C5.00 °C 
15:15:007.80 °C1001.80 hPa83.00 %9.36 km/hW6.10 °C5.10 °C 
15:00:007.80 °C1002.00 hPa83.00 %4.32 km/hWSW7.80 °C5.10 °C 
14:45:007.90 °C1002.10 hPa83.00 %3.60 km/hNW7.90 °C5.20 °C 
14:30:007.90 °C1001.90 hPa82.00 %8.64 km/hW6.40 °C5.00 °C 
14:15:007.90 °C1002.10 hPa82.00 %10.08 km/hWNW6.10 °C5.00 °C 
14:00:007.90 °C1002.40 hPa81.00 %2.52 km/hWNW7.90 °C4.80 °C 
13:45:008.10 °C1002.20 hPa81.00 %3.60 km/hW8.10 °C5.00 °C 
13:30:008.20 °C1002.20 hPa82.00 %5.30 °C 
13:15:008.10 °C1002.20 hPa82.00 %5.76 km/hW7.40 °C5.20 °C 
13:00:008.10 °C1002.20 hPa82.00 %15.48 km/hWSW5.50 °C5.20 °C 
12:45:008.20 °C1002.40 hPa82.00 %6.12 km/hWNW7.40 °C5.30 °C 
12:30:008.30 °C1002.40 hPa82.00 %5.40 °C 
12:15:008.40 °C1002.40 hPa83.00 %9.72 km/hW6.80 °C5.70 °C 
12:00:008.40 °C1002.60 hPa83.00 %5.70 °C 
11:45:008.40 °C1002.70 hPa83.00 %5.40 km/hNNW7.80 °C5.70 °C 
11:30:008.30 °C1002.70 hPa83.00 %2.52 km/hNW8.30 °C5.60 °C 
11:15:008.20 °C1002.60 hPa84.00 %6.84 km/hWSW7.20 °C5.70 °C 
11:00:008.10 °C1002.60 hPa85.00 %3.24 km/hNW8.10 °C5.70 °C 
10:45:007.90 °C1002.50 hPa85.00 %6.48 km/hWNW6.90 °C5.50 °C 
10:30:007.90 °C1002.60 hPa85.00 %7.92 km/hWNW6.60 °C5.50 °C 
10:15:008.00 °C1002.70 hPa85.00 %20.16 km/hNNW4.80 °C5.60 °C 
10:00:007.90 °C1002.50 hPa86.00 %5.70 °C 
09:45:007.90 °C1002.50 hPa86.00 %6.84 km/hWNW6.80 °C5.70 °C 
09:30:007.60 °C1002.30 hPa86.00 %5.04 km/hW7.00 °C5.40 °C 
09:15:007.50 °C1002.40 hPa86.00 %5.30 °C 
09:00:007.40 °C1002.40 hPa86.00 %5.20 °C 
08:45:007.30 °C1002.30 hPa86.00 %5.10 °C 
08:30:007.30 °C1002.30 hPa87.00 %5.04 km/hN6.70 °C5.30 °C 
08:15:007.20 °C1002.30 hPa87.00 %5.04 km/hSW6.60 °C5.20 °C 
08:00:006.90 °C1002.30 hPa87.00 %18.00 km/hW3.70 °C4.90 °C 
07:45:006.90 °C1002.40 hPa87.00 %7.92 km/hWSW5.40 °C4.90 °C 
07:30:006.80 °C1002.30 hPa87.00 %10.08 km/hWSW4.80 °C4.80 °C 
07:15:006.70 °C1002.30 hPa87.00 %3.96 km/hWNW6.70 °C4.70 °C 
07:00:006.60 °C1002.40 hPa87.00 %4.60 °C 
06:45:006.50 °C1002.30 hPa87.00 %3.96 km/hNW6.50 °C4.50 °C 
06:30:006.40 °C1002.30 hPa87.00 %4.40 °C 
06:15:006.30 °C1002.20 hPa87.00 %4.30 °C 
06:00:006.30 °C1002.10 hPa87.00 %4.68 km/hW6.30 °C4.30 °C 
05:45:006.30 °C1002.20 hPa87.00 %4.30 °C 
05:30:006.30 °C1002.20 hPa87.00 %8.28 km/hS4.60 °C4.30 °C 
05:15:006.30 °C1002.10 hPa87.00 %4.30 °C 
05:00:006.60 °C1001.90 hPa87.00 %4.60 °C 
04:45:006.80 °C1002.10 hPa87.00 %4.80 °C 
04:30:007.00 °C1002.10 hPa88.00 %5.20 °C 
04:15:007.20 °C1002.20 hPa88.00 %6.48 km/hWSW6.10 °C5.30 °C 
04:00:007.30 °C1002.20 hPa88.00 %32.40 km/hWSW2.90 °C5.40 °C 
03:45:007.50 °C1002.40 hPa88.00 %6.12 km/hWNW6.60 °C5.60 °C 
03:30:007.60 °C1003.10 hPa89.00 %3.24 km/hWNW7.60 °C5.90 °C 
03:15:007.80 °C1003.00 hPa90.00 %15.12 km/hSW5.20 °C6.30 °C 
03:00:007.90 °C1003.00 hPa90.00 %6.40 °C 
02:45:007.90 °C1002.80 hPa91.00 %3.24 km/hW7.90 °C6.50 °C 
02:30:008.10 °C1002.90 hPa91.00 %2.52 km/hNNW8.10 °C6.70 °C 
02:15:008.10 °C1003.20 hPa91.00 %8.64 km/hWNW6.60 °C6.70 °C 
02:00:008.10 °C1003.30 hPa91.00 %7.20 km/hNNW7.00 °C6.70 °C 
01:45:008.10 °C1003.40 hPa91.00 %6.70 °C 
01:30:008.10 °C1003.30 hPa91.00 %10.08 km/hWSW6.30 °C6.70 °C 
01:15:008.00 °C1003.30 hPa92.00 %9.00 km/hWNW6.40 °C6.80 °C 
01:00:007.90 °C1003.10 hPa92.00 %5.04 km/hW7.40 °C6.70 °C 
00:45:008.00 °C1003.20 hPa92.00 %4.68 km/hW8.00 °C6.80 °C 
00:30:007.90 °C1003.00 hPa92.00 %4.68 km/hW7.90 °C6.70 °C 
00:15:008.10 °C1003.30 hPa92.00 %8.64 km/hWSW6.60 °C6.90 °C 
00:00:008.10 °C1003.60 hPa92.00 %2.16 km/hSSW8.10 °C6.90 °C 

Permanenter Link zu dieser Seite: Wetter im Erzgebirge am 22.02.2016
Performance-Info: Die Erstellung der Seite / Statistik(en) / Tabelle(n) erforderte 5 Datenbankserver-Abfrage(n) und dauerte 97 Millisekunden. (Dieser Messwert ist von der Gesamt-Auslastung des Servers abhängig.)
Erzgebirge - Wetter | Erzgebirge - Wetter (Mobilgeräte) | Komplette Klimadatenbank